Terminal Aerodrome Forecast
Issued by NWS

Home | Current Version | Previous Version | Text Only | Print | Product List | Glossary On
Versions: 1 2 3 4 5 6 7 8 9 10 11 12 13 14 15 16
000
FTUS44 KLZK 302320
TAFLLQ
TAF
KLLQ 302320Z 3100/3124 VRB04KT P6SM BKN250
      TEMPO 3109/3113 5SM BR
     FM311300 04005KT P6SM SCT250
     FM311800 01008KT P6SM VCTS SCT040CB SCT250=

USA.gov is the U.S. government's official web portal to all federal, state and local government web resources and services.